Time;durP1;ratioP1;P1;durP2;ratioP2;P2;SDS_P1;SDS_P2;PMS_P1;PMS_P2;Temp;Humidity;BMP_temperature;BMP_pressure;BME280_temperature;BME280_humidity;BME280_pressure;Samples;Min_cycle;Max_cycle;Signal;HPM_P1;HPM_P2
2022/06/17 00:00:47;;;;;;;;;;;;;;;29.35;35.88;94803.34;5064759;28;7058;-60
2022/06/17 00:03:16;;;;;;;;;;;;;;;29.36;36.07;94804.09;5044615;28;7247;-59
2022/06/17 00:05:42;;;;;;;;;;;;;;;29.34;36.02;94810.16;5045314;28;7335;-60
2022/06/17 00:08:21;;;;;;;;;;;;;;;29.35;36.36;94808.13;5054584;28;8952;-59
2022/06/17 00:10:48;;;;;;;;;;;;;;;29.33;36.04;94810.69;5058653;28;9062;-59
2022/06/17 00:13:54;;;;;;;;;;;;;;;29.35;35.88;94817.22;5073258;28;9075;-60
2022/06/17 00:16:34;;;;;;;;;;;;;;;29.32;35.84;94809.94;5051128;28;8428;-60
2022/06/17 00:19:18;;;;;;;;;;;;;;;29.34;35.55;94818.47;5055128;28;7182;-59
2022/06/17 00:21:53;;;;;;;;;;;;;;;29.33;35.72;94805.16;5065158;28;7214;-59
2022/06/17 00:24:33;;;;;;;;;;;;;;;29.31;36.04;94805.69;5071260;28;9110;-59
2022/06/17 00:27:13;;;;;;;;;;;;;;;29.30;36.28;94800.66;5056807;28;9146;-60
2022/06/17 00:29:39;;;;;;;;;;;;;;;29.29;35.82;94799.91;5058208;28;9118;-59
2022/06/17 00:32:08;;;;;;;;;;;;;;;29.29;35.56;94799.16;5068389;28;7024;-59
2022/06/17 00:34:34;;;;;;;;;;;;;;;29.29;36.05;94804.69;5062466;28;7207;-59
2022/06/17 00:37:03;;;;;;;;;;;;;;;29.27;36.18;94808.00;5059600;28;9464;-59
2022/06/17 00:39:34;;;;;;;;;;;;;;;29.27;35.74;94807.25;5057104;28;7008;-59
2022/06/17 00:42:26;;;;;;;;;;;;;;;29.26;36.24;94814.06;5057795;28;7577;-60
2022/06/17 00:45:36;;;;;;;;;;;;;;;29.25;35.78;94804.25;5050986;28;7222;-59
2022/06/17 00:48:41;;;;;;;;;;;;;;;29.24;35.82;94809.03;5049609;28;7282;-59
2022/06/17 00:51:40;;;;;;;;;;;;;;;29.24;35.73;94809.03;4982789;28;7241;-59
2022/06/17 00:57:46;;;;;;;;;;;;;;;29.22;36.14;94811.59;4937974;28;7235;-59
2022/06/17 01:00:18;;;;;;;;;;;;;;;29.20;35.75;94808.59;4928904;28;8748;-59
2022/06/17 01:03:01;;;;;;;;;;;;;;;29.18;35.83;94811.16;4944993;28;8759;-59
2022/06/17 01:05:53;;;;;;;;;;;;;;;29.14;36.19;94810.69;4947782;28;7112;-59
2022/06/17 01:11:13;;;;;;;;;;;;;;;29.14;35.66;94821.75;4935050;28;9785;-59
2022/06/17 01:13:42;;;;;;;;;;;;;;;29.12;35.53;94821.53;4930872;29;7618;-59
2022/06/17 01:16:11;;;;;;;;;;;;;;;29.13;35.99;94825.03;4925851;28;8791;-59
2022/06/17 01:18:44;;;;;;;;;;;;;;;29.12;35.49;94826.31;4931807;28;9138;-59
2022/06/17 01:21:39;;;;;;;;;;;;;;;29.12;35.36;94829.09;4928301;28;8761;-59
2022/06/17 01:24:08;;;;;;;;;;;;;;;29.09;35.73;94837.19;4930026;28;7233;-60
2022/06/17 01:26:37;;;;;;;;;;;;;;;29.09;35.60;94834.41;4987401;28;6998;-59
2022/06/17 01:29:16;;;;;;;;;;;;;;;29.08;35.19;94837.69;4983492;28;7290;-59
2022/06/17 01:31:51;;;;;;;;;;;;;;;29.05;34.96;94828.44;5000002;28;7044;-59
2022/06/17 01:34:19;;;;;;;;;;;;;;;29.07;35.82;94828.66;5026021;28;7325;-60
2022/06/17 01:36:49;;;;;;;;;;;;;;;29.05;35.27;94828.44;5073163;28;7000;-59
2022/06/17 01:39:17;;;;;;;;;;;;;;;29.05;35.04;94822.88;5062012;28;6979;-59
2022/06/17 01:41:46;;;;;;;;;;;;;;;29.05;35.47;94824.91;5049828;28;8817;-60
2022/06/17 01:44:14;;;;;;;;;;;;;;;29.05;35.53;94824.91;5052861;28;9173;-59
2022/06/17 01:46:55;;;;;;;;;;;;;;;29.03;34.96;94822.66;5067800;28;8772;-59
2022/06/17 01:49:44;;;;;;;;;;;;;;;29.02;35.39;94821.16;5053280;28;9121;-60
2022/06/17 01:53:08;;;;;;;;;;;;;;;29.02;35.12;94820.41;5051748;28;7922;-59
2022/06/17 01:55:41;;;;;;;;;;;;;;;29.00;35.41;94829.25;4991642;28;9070;-59
2022/06/17 01:58:14;;;;;;;;;;;;;;;29.01;35.37;94830.72;4991836;28;8895;-59
2022/06/17 02:00:55;;;;;;;;;;;;;;;28.99;35.46;94827.72;4973625;28;7463;-60
2022/06/17 02:03:32;;;;;;;;;;;;;;;28.98;35.09;94831.78;4984102;28;8008;-59
2022/06/17 02:06:51;;;;;;;;;;;;;;;28.96;35.39;94826.03;4992025;28;7056;-59
2022/06/17 02:09:34;;;;;;;;;;;;;;;28.96;35.02;94822.50;4908517;29;7207;-60
2022/06/17 02:12:21;;;;;;;;;;;;;;;28.95;35.15;94830.03;4933760;29;7151;-59
2022/06/17 02:15:01;;;;;;;;;;;;;;;28.93;35.14;94829.81;4932216;29;7810;-59
2022/06/17 02:17:38;;;;;;;;;;;;;;;28.92;35.21;94825.56;4912962;29;9011;-59
2022/06/17 02:20:16;;;;;;;;;;;;;;;28.92;35.17;94825.56;4928609;29;6987;-59
2022/06/17 02:22:57;;;;;;;;;;;;;;;28.90;34.98;94825.34;4927187;29;7129;-60
2022/06/17 02:25:35;;;;;;;;;;;;;;;28.90;35.45;94830.88;4917433;28;7232;-59
2022/06/17 02:28:05;;;;;;;;;;;;;;;28.88;35.44;94825.09;4991108;28;9078;-59
2022/06/17 02:30:32;;;;;;;;;;;;;;;28.89;35.16;94823.09;4985067;28;7306;-59
2022/06/17 02:33:05;;;;;;;;;;;;;;;28.85;35.17;94823.38;4986462;28;9118;-59
2022/06/17 02:35:57;;;;;;;;;;;;;;;28.87;35.24;94831.16;4988107;28;9047;-59
2022/06/17 02:38:27;;;;;;;;;;;;;;;28.85;34.90;94825.41;4990604;28;7823;-59
2022/06/17 02:41:06;;;;;;;;;;;;;;;28.84;34.95;94830.19;4969206;28;9298;-59
2022/06/17 02:44:05;;;;;;;;;;;;;;;28.82;34.78;94823.66;5008407;28;8604;-59
2022/06/17 02:47:03;;;;;;;;;;;;;;;28.82;35.35;94827.19;4944567;28;7293;-59
2022/06/17 02:49:47;;;;;;;;;;;;;;;28.83;35.21;94830.72;4925199;29;8868;-59
2022/06/17 02:52:20;;;;;;;;;;;;;;;28.82;34.82;94824.41;4914072;29;9088;-59
2022/06/17 02:55:15;;;;;;;;;;;;;;;28.81;35.07;94822.94;4915653;29;7385;-59
2022/06/17 02:57:46;;;;;;;;;;;;;;;28.80;35.01;94824.19;4923866;29;10084;-59
2022/06/17 03:00:17;;;;;;;;;;;;;;;28.79;34.96;94814.41;4932254;28;7062;-59
2022/06/17 03:02:48;;;;;;;;;;;;;;;28.77;35.37;94814.19;4927213;29;7008;-59
2022/06/17 03:05:36;;;;;;;;;;;;;;;28.78;35.24;94817.69;4920566;29;7225;-60
2022/06/17 03:08:16;;;;;;;;;;;;;;;28.77;35.08;94827.28;4911330;29;7357;-60
2022/06/17 03:10:43;;;;;;;;;;;;;;;28.77;34.88;94827.28;4912153;29;9243;-59
2022/06/17 03:13:17;;;;;;;;;;;;;;;28.75;35.06;94827.03;4900814;29;9457;-59
2022/06/17 03:15:48;;;;;;;;;;;;;;;28.75;34.79;94819.47;4915883;29;6992;-60
2022/06/17 03:18:14;;;;;;;;;;;;;;;28.73;34.72;94826.81;4919884;29;7360;-60
2022/06/17 03:21:06;;;;;;;;;;;;;;;28.72;34.77;94828.84;4902066;29;9479;-59
2022/06/17 03:24:26;;;;;;;;;;;;;;;28.71;34.77;94824.56;4948152;28;7376;-59
2022/06/17 03:27:16;;;;;;;;;;;;;;;28.70;35.29;94830.63;4932342;28;9337;-59
2022/06/17 03:29:47;;;;;;;;;;;;;;;28.69;35.27;94837.41;4927522;28;7236;-59
2022/06/17 03:32:33;;;;;;;;;;;;;;;28.67;34.85;94840.72;4935670;28;9112;-59
2022/06/17 03:35:00;;;;;;;;;;;;;;;28.69;34.78;94842.94;4950770;28;9096;-59
2022/06/17 03:37:57;;;;;;;;;;;;;;;28.67;34.75;94846.25;4950865;28;7016;-59
2022/06/17 03:40:47;;;;;;;;;;;;;;;28.65;34.83;94843.25;4932140;29;7408;-59
2022/06/17 03:43:27;;;;;;;;;;;;;;;28.63;34.91;94851.31;4948718;29;9196;-59
2022/06/17 03:46:10;;;;;;;;;;;;;;;28.61;35.01;94859.41;4935571;29;7963;-59
2022/06/17 03:48:38;;;;;;;;;;;;;;;28.62;35.04;94869.22;4925411;29;9459;-59
2022/06/17 03:51:12;;;;;;;;;;;;;;;28.61;34.87;94864.94;4939594;29;7547;-59
2022/06/17 03:53:42;;;;;;;;;;;;;;;28.61;34.87;94864.19;4934171;28;7168;-60
2022/06/17 03:56:18;;;;;;;;;;;;;;;28.61;34.79;94862.16;4949289;28;9399;-59
2022/06/17 03:58:47;;;;;;;;;;;;;;;28.59;34.96;94875.03;4936790;29;9456;-60
2022/06/17 04:01:22;;;;;;;;;;;;;;;28.57;35.14;94878.31;5018186;28;7169;-59
2022/06/17 04:03:57;;;;;;;;;;;;;;;28.57;35.26;94880.31;5072812;28;7276;-60
2022/06/17 04:06:30;;;;;;;;;;;;;;;28.57;35.21;94883.06;5057929;28;7515;-59
2022/06/17 04:09:12;;;;;;;;;;;;;;;28.57;35.44;94885.84;5075456;28;7243;-59
2022/06/17 04:11:45;;;;;;;;;;;;;;;28.57;35.47;94885.84;5042815;28;7175;-59
2022/06/17 04:14:43;;;;;;;;;;;;;;;28.55;35.05;94886.38;5058745;28;9261;-59
2022/06/17 04:17:48;;;;;;;;;;;;;;;28.53;35.08;94891.66;4995214;28;7369;-59
2022/06/17 04:20:35;;;;;;;;;;;;;;;28.53;35.28;94882.63;4986113;28;7105;-60
2022/06/17 04:23:07;;;;;;;;;;;;;;;28.52;34.87;94878.34;4996944;28;7041;-59
2022/06/17 04:26:00;;;;;;;;;;;;;;;28.51;35.02;94877.59;5001752;28;7080;-59
2022/06/17 04:29:02;;;;;;;;;;;;;;;28.52;35.08;94890.16;4997150;28;9049;-59
2022/06/17 04:31:33;;;;;;;;;;;;;;;28.51;35.20;94908.03;4946742;28;9140;-60
2022/06/17 04:34:13;;;;;;;;;;;;;;;28.49;34.73;94896.75;4936654;28;9469;-60
2022/06/17 04:36:43;;;;;;;;;;;;;;;28.41;34.91;94895.81;4954299;28;7257;-60
2022/06/17 04:39:52;;;;;;;;;;;;;;;28.40;35.42;94901.84;4953476;28;7286;-60
2022/06/17 04:42:28;;;;;;;;;;;;;;;28.37;34.99;94900.88;4918343;29;9448;-60
2022/06/17 04:44:54;;;;;;;;;;;;;;;28.37;35.75;94900.88;4911508;29;7055;-60
2022/06/17 04:47:33;;;;;;;;;;;;;;;28.38;35.22;94903.13;4909576;29;7139;-60
2022/06/17 04:50:16;;;;;;;;;;;;;;;28.38;35.25;94901.63;4900570;29;7284;-60
2022/06/17 04:52:45;;;;;;;;;;;;;;;28.40;35.51;94899.09;4904818;29;7558;-60
2022/06/17 04:55:38;;;;;;;;;;;;;;;28.41;35.42;94906.09;4935539;28;7321;-60
2022/06/17 04:58:21;;;;;;;;;;;;;;;28.42;35.44;94896.56;4919251;28;7188;-60
2022/06/17 05:00:57;;;;;;;;;;;;;;;28.45;35.73;94907.31;4920901;28;8926;-60
2022/06/17 05:03:35;;;;;;;;;;;;;;;28.45;35.62;94912.88;4910508;29;7293;-60
2022/06/17 05:06:04;;;;;;;;;;;;;;;28.47;35.34;94907.56;4920663;28;7196;-60
2022/06/17 05:09:10;;;;;;;;;;;;;;;28.47;35.55;94912.38;4989347;28;7230;-60
2022/06/17 05:11:42;;;;;;;;;;;;;;;28.48;35.38;94909.06;4926351;28;7893;-60
2022/06/17 05:14:54;;;;;;;;;;;;;;;28.48;35.79;94911.84;4917894;29;7284;-60
2022/06/17 05:17:49;;;;;;;;;;;;;;;28.48;35.64;94908.31;4887320;28;7266;-60
2022/06/17 05:20:21;;;;;;;;;;;;;;;28.47;35.60;94904.78;4855035;29;9164;-60
2022/06/17 05:22:54;;;;;;;;;;;;;;;28.46;35.93;94908.09;4841081;29;9417;-60
2022/06/17 05:25:25;;;;;;;;;;;;;;;28.46;36.14;94914.38;4844414;29;7466;-60
2022/06/17 05:28:16;;;;;;;;;;;;;;;28.45;35.99;94918.41;4834572;29;9144;-60
2022/06/17 05:30:55;;;;;;;;;;;;;;;28.49;36.33;94913.34;4851089;29;7265;-60
2022/06/17 05:33:23;;;;;;;;;;;;;;;28.51;36.33;94910.81;4826656;29;7268;-60
2022/06/17 05:35:51;;;;;;;;;;;;;;;28.55;40.40;94904.97;4845308;29;7230;-60
2022/06/17 05:38:17;;;;;;;;;;;;;;;28.59;40.40;94909.00;4839454;29;9026;-60
2022/06/17 05:40:43;;;;;;;;;;;;;;;28.58;39.00;94921.31;4842415;29;6982;-60
2022/06/17 05:43:25;;;;;;;;;;;;;;;28.59;38.54;94922.84;4841368;29;7869;-60
2022/06/17 05:45:51;;;;;;;;;;;;;;;28.58;37.84;94935.16;4847851;29;8926;-60
2022/06/17 05:48:17;;;;;;;;;;;;;;;28.59;36.77;94933.16;4875088;29;7084;-60
2022/06/17 05:50:51;;;;;;;;;;;;;;;28.59;37.03;94936.66;4909807;29;7022;-60
2022/06/17 05:53:17;;;;;;;;;;;;;;;28.59;39.66;94939.44;4917795;28;7267;-59
2022/06/17 05:55:44;;;;;;;;;;;;;;;28.61;38.34;94936.91;4958943;28;7214;-60
2022/06/17 05:58:20;;;;;;;;;;;;;;;28.61;38.29;94930.59;5053988;28;7238;-60
2022/06/17 06:00:47;;;;;;;;;;;;;;;28.61;37.88;94930.59;5056877;28;9802;-60
2022/06/17 06:03:19;;;;;;;;;;;;;;;28.64;37.37;94941.41;5052597;28;7249;-60
2022/06/17 06:05:52;;;;;;;;;;;;;;;28.62;37.69;94940.44;5042815;28;7272;-60
2022/06/17 06:08:18;;;;;;;;;;;;;;;28.61;37.82;94945.22;5053990;28;10180;-60
2022/06/17 06:11:19;;;;;;;;;;;;;;;28.61;37.58;94953.50;5049679;28;7228;-60
2022/06/17 06:14:00;;;;;;;;;;;;;;;28.62;37.58;94954.25;5060420;28;7014;-60
2022/06/17 06:16:30;;;;;;;;;;;;;;;28.61;38.12;94963.81;5066066;28;9088;-60
2022/06/17 06:18:57;;;;;;;;;;;;;;;28.59;38.06;94964.34;5065577;28;10197;-60
2022/06/17 06:21:23;;;;;;;;;;;;;;;28.59;37.67;94964.34;5047295;28;7399;-60
2022/06/17 06:23:49;;;;;;;;;;;;;;;28.60;38.28;94974.13;5047236;28;9223;-60
2022/06/17 06:26:20;;;;;;;;;;;;;;;28.61;38.47;94972.13;5033605;28;7450;-60
2022/06/17 06:28:50;;;;;;;;;;;;;;;28.60;38.23;94974.13;5057487;28;7139;-61
2022/06/17 06:31:30;;;;;;;;;;;;;;;28.61;38.19;94966.59;5067322;28;9566;-60
2022/06/17 06:33:56;;;;;;;;;;;;;;;28.59;37.99;94980.97;5062968;28;7934;-60
2022/06/17 06:36:25;;;;;;;;;;;;;;;28.59;38.06;94978.19;5054362;28;8803;-60
2022/06/17 06:38:51;;;;;;;;;;;;;;;28.61;39.51;94983.97;5038553;28;7290;-60
2022/06/17 06:41:20;;;;;;;;;;;;;;;28.63;39.11;94983.44;5068104;28;7279;-61
2022/06/17 06:44:01;;;;;;;;;;;;;;;28.63;40.23;94995.25;5068131;28;7262;-60
2022/06/17 06:46:31;;;;;;;;;;;;;;;28.64;39.63;94985.69;5053278;28;7134;-61
2022/06/17 06:48:57;;;;;;;;;;;;;;;28.64;39.32;94991.25;5051555;28;7464;-61
2022/06/17 06:51:32;;;;;;;;;;;;;;;28.63;39.40;94984.19;5034801;28;7199;-61
2022/06/17 06:53:59;;;;;;;;;;;;;;;28.63;39.47;94981.41;5042550;28;7867;-61
2022/06/17 06:56:34;;;;;;;;;;;;;;;28.65;39.12;94991.97;5055446;28;7266;-61
2022/06/17 06:59:12;;;;;;;;;;;;;;;28.64;39.57;94985.69;5054218;28;7157;-61
2022/06/17 07:01:38;;;;;;;;;;;;;;;28.64;39.67;94996.78;5052320;28;9091;-61
2022/06/17 07:04:05;;;;;;;;;;;;;;;28.64;39.50;94996.78;5047867;28;7164;-61
2022/06/17 07:06:35;;;;;;;;;;;;;;;28.63;39.36;94992.50;5032323;28;7070;-61
2022/06/17 07:09:03;;;;;;;;;;;;;;;28.63;39.42;94998.03;5062295;28;7191;-61
2022/06/17 07:11:30;;;;;;;;;;;;;;;28.64;39.26;94996.78;5068311;28;8208;-61
2022/06/17 07:13:56;;;;;;;;;;;;;;;28.63;38.88;94988.97;5068375;28;7418;-61
2022/06/17 07:16:22;;;;;;;;;;;;;;;28.65;39.18;94995.50;5068618;28;9043;-61
2022/06/17 07:18:48;;;;;;;;;;;;;;;28.66;39.54;94991.47;5050386;28;7287;-61
2022/06/17 07:21:18;;;;;;;;;;;;;;;28.67;39.17;94995.72;5068005;28;9065;-61
2022/06/17 07:23:47;;;;;;;;;;;;;;;28.69;39.09;94993.19;5049418;28;7282;-61
2022/06/17 07:26:16;;;;;;;;;;;;;;;28.67;38.96;94992.94;5064501;28;8924;-61
2022/06/17 07:28:43;;;;;;;;;;;;;;;28.68;39.21;94994.47;5044326;28;7205;-61
2022/06/17 07:31:12;;;;;;;;;;;;;;;28.68;38.96;94985.41;5067605;28;8735;-61
2022/06/17 07:33:38;;;;;;;;;;;;;;;28.69;39.15;94986.91;5050877;28;7289;-61
2022/06/17 07:36:07;;;;;;;;;;;;;;;28.66;39.10;94994.25;5053375;28;7361;-61
2022/06/17 07:41:24;;;;;;;;;;;;;;;28.65;38.97;94983.66;5049200;28;9067;-61
2022/06/17 07:43:53;;;;;;;;;;;;;;;28.65;39.20;94991.97;5041905;28;9094;-61
2022/06/17 07:46:22;;;;;;;;;;;;;;;28.63;38.94;94989.72;5071250;28;7265;-61
2022/06/17 07:48:51;;;;;;;;;;;;;;;28.64;39.25;94990.47;5050773;28;9030;-61
2022/06/17 07:51:18;;;;;;;;;;;;;;;28.63;38.92;94988.97;5051542;28;7334;-61
2022/06/17 07:53:44;;;;;;;;;;;;;;;28.66;38.91;94996.25;5068639;28;9433;-61
2022/06/17 07:56:15;;;;;;;;;;;;;;;28.64;38.81;94994.00;5051314;28;7194;-61
2022/06/17 07:58:46;;;;;;;;;;;;;;;28.63;39.09;94992.50;5065522;28;7308;-61
2022/06/17 08:01:14;;;;;;;;;;;;;;;28.66;38.89;94994.25;5051451;28;7207;-61
2022/06/17 08:03:41;;;;;;;;;;;;;;;28.67;38.50;94995.72;5051458;28;9226;-61
2022/06/17 08:06:10;;;;;;;;;;;;;;;28.66;38.99;94987.94;5068719;28;7062;-61
2022/06/17 08:08:51;;;;;;;;;;;;;;;28.68;39.13;94988.19;5054345;28;8315;-61
2022/06/17 08:11:26;;;;;;;;;;;;;;;28.68;39.04;94990.94;5035084;28;7167;-61
2022/06/17 08:14:01;;;;;;;;;;;;;;;28.65;39.05;94989.94;5063799;28;7397;-61
2022/06/17 08:16:28;;;;;;;;;;;;;;;28.67;39.32;94998.50;5054916;28;9253;-61
2022/06/17 08:19:04;;;;;;;;;;;;;;;28.66;38.99;95002.53;5053960;28;9249;-61
2022/06/17 08:21:31;;;;;;;;;;;;;;;28.67;39.09;95004.03;5071516;28;6958;-61
2022/06/17 08:24:07;;;;;;;;;;;;;;;28.67;39.14;95004.03;5053843;28;7255;-61
2022/06/17 08:26:34;;;;;;;;;;;;;;;28.67;38.96;95006.03;5054228;28;7288;-61
2022/06/17 08:29:02;;;;;;;;;;;;;;;28.66;38.94;94997.00;5049620;28;9380;-61
2022/06/17 08:31:28;;;;;;;;;;;;;;;28.67;38.67;94994.97;5050203;28;9307;-61
2022/06/17 08:33:57;;;;;;;;;;;;;;;28.67;38.91;95000.50;5055827;28;7490;-60
2022/06/17 08:36:29;;;;;;;;;;;;;;;28.66;39.04;94999.00;5071702;28;8745;-61
2022/06/17 08:39:07;;;;;;;;;;;;;;;28.69;38.89;94997.97;5049397;28;7298;-61
2022/06/17 08:41:59;;;;;;;;;;;;;;;28.68;39.06;94999.25;5054172;28;7345;-61
2022/06/17 08:45:09;;;;;;;;;;;;;;;28.70;38.77;95003.00;5045636;28;9334;-61
2022/06/17 08:48:03;;;;;;;;;;;;;;;28.70;38.90;95003.00;5043624;28;8775;-61
2022/06/17 08:50:56;;;;;;;;;;;;;;;28.70;38.30;94994.69;5075103;28;7146;-61
2022/06/17 08:53:41;;;;;;;;;;;;;;;28.71;38.85;94987.88;5075117;28;7894;-61
2022/06/17 08:56:35;;;;;;;;;;;;;;;28.71;38.81;94987.88;5074739;28;7001;-61
2022/06/17 08:59:13;;;;;;;;;;;;;;;28.72;38.43;94991.41;5046408;28;7239;-62
2022/06/17 09:01:49;;;;;;;;;;;;;;;28.71;38.77;94993.41;5054722;28;8917;-61
2022/06/17 09:04:28;;;;;;;;;;;;;;;28.72;38.74;94992.16;5054004;28;9460;-61
2022/06/17 09:07:30;;;;;;;;;;;;;;;28.71;38.65;94987.88;5075664;28;9019;-61
2022/06/17 09:10:23;;;;;;;;;;;;;;;28.74;38.87;94989.63;5038653;28;7019;-61
2022/06/17 09:13:14;;;;;;;;;;;;;;;28.76;38.76;94991.88;4972718;28;7022;-61
2022/06/17 09:15:41;;;;;;;;;;;;;;;28.77;38.43;94993.38;4972951;28;9072;-61
2022/06/17 09:18:15;;;;;;;;;;;;;;;28.76;38.64;94989.09;4964048;28;8961;-61
2022/06/17 09:21:01;;;;;;;;;;;;;;;28.76;38.94;94987.09;4971888;28;7391;-61
2022/06/17 09:23:36;;;;;;;;;;;;;;;28.76;38.32;94989.84;4953946;28;7241;-61
2022/06/17 09:26:14;;;;;;;;;;;;;;;28.77;38.72;94990.63;4953822;28;7265;-62
2022/06/17 09:29:07;;;;;;;;;;;;;;;28.77;38.62;94983.06;4963234;28;7142;-61
2022/06/17 09:31:45;;;;;;;;;;;;;;;28.78;38.89;94992.09;4885322;29;9062;-61
2022/06/17 09:34:18;;;;;;;;;;;;;;;28.78;38.89;94992.84;4859218;29;9090;-61
2022/06/17 09:37:07;;;;;;;;;;;;;;;28.77;38.48;94994.13;4892770;29;7079;-61
2022/06/17 09:39:48;;;;;;;;;;;;;;;28.76;38.88;94986.31;4866625;29;8979;-61
2022/06/17 09:42:52;;;;;;;;;;;;;;;28.79;38.58;94993.63;4878576;29;7085;-61
2022/06/17 09:45:38;;;;;;;;;;;;;;;28.80;38.79;94995.84;4845000;29;8998;-61
2022/06/17 09:48:15;;;;;;;;;;;;;;;28.79;38.63;94994.38;4863176;29;7004;-61
2022/06/17 09:50:58;;;;;;;;;;;;;;;28.81;38.77;94999.38;4909328;29;8803;-61
2022/06/17 09:54:03;;;;;;;;;;;;;;;28.82;39.02;94990.53;4932905;29;9234;-61
2022/06/17 09:56:52;;;;;;;;;;;;;;;28.82;38.80;94996.09;4916644;29;9091;-61
2022/06/17 09:59:41;;;;;;;;;;;;;;;28.85;38.70;94995.06;4922097;29;7148;-61
2022/06/17 10:03:03;;;;;;;;;;;;;;;28.86;38.66;94991.00;4917458;29;7523;-61
2022/06/17 10:05:59;;;;;;;;;;;;;;;28.87;38.43;94992.53;4889006;29;7258;-61
2022/06/17 10:08:50;;;;;;;;;;;;;;;28.90;38.56;94985.97;4914007;28;7002;-61
2022/06/17 10:11:41;;;;;;;;;;;;;;;28.89;38.17;94981.69;4931686;28;7684;-61
2022/06/17 10:14:26;;;;;;;;;;;;;;;28.88;38.18;94980.16;4920039;29;7686;-61
2022/06/17 10:20:07;;;;;;;;;;;;;;;28.90;38.58;94988.72;4939606;28;8731;-61
2022/06/17 10:22:55;;;;;;;;;;;;;;;28.89;39.12;94986.44;4955586;28;7029;-61
2022/06/17 10:26:03;;;;;;;;;;;;;;;28.89;38.45;94978.16;4953902;28;9007;-61
2022/06/17 10:29:05;;;;;;;;;;;;;;;28.88;38.53;94977.38;4953177;28;9426;-61
2022/06/17 10:31:33;;;;;;;;;;;;;;;28.88;38.52;94976.66;4927115;28;7264;-61
2022/06/17 10:34:10;;;;;;;;;;;;;;;28.87;38.60;94969.63;4932964;28;8798;-61
2022/06/17 10:36:40;;;;;;;;;;;;;;;28.89;37.98;94967.81;4922123;29;7300;-61
2022/06/17 10:39:10;;;;;;;;;;;;;;;28.88;38.06;94969.09;4946728;28;8813;-61
2022/06/17 10:41:37;;;;;;;;;;;;;;;28.89;37.99;94970.59;5006510;28;9747;-61
2022/06/17 10:44:09;;;;;;;;;;;;;;;28.89;38.53;94973.38;4985795;28;9243;-61
2022/06/17 10:47:26;;;;;;;;;;;;;;;28.88;38.53;94966.31;5011021;28;7244;-61
2022/06/17 10:50:09;;;;;;;;;;;;;;;28.87;38.39;94964.06;4935237;28;7369;-61
2022/06/17 10:52:45;;;;;;;;;;;;;;;28.88;38.31;94971.84;4949273;28;8040;-61
2022/06/17 10:55:25;;;;;;;;;;;;;;;28.90;37.84;94974.13;4937081;28;9115;-61
2022/06/17 10:58:09;;;;;;;;;;;;;;;28.90;38.12;94974.88;4929913;28;9159;-61
2022/06/17 11:01:01;;;;;;;;;;;;;;;28.91;38.16;94975.59;4933457;29;7269;-61
2022/06/17 11:03:41;;;;;;;;;;;;;;;28.92;37.89;94975.09;4928592;28;7090;-61
2022/06/17 11:06:18;;;;;;;;;;;;;;;28.92;38.40;94961.25;4946306;28;9033;-61
2022/06/17 11:08:49;;;;;;;;;;;;;;;28.95;38.79;94962.22;4976224;28;7318;-61
2022/06/17 11:12:03;;;;;;;;;;;;;;;28.95;38.40;94965.75;4982794;28;7230;-61
2022/06/17 11:14:40;;;;;;;;;;;;;;;28.96;38.24;94966.50;4961801;28;7284;-61
2022/06/17 11:17:30;;;;;;;;;;;;;;;28.97;38.07;94963.19;4961376;28;9044;-61
2022/06/17 11:20:01;;;;;;;;;;;;;;;28.99;38.13;94957.91;4981288;28;7096;-61
2022/06/17 11:22:32;;;;;;;;;;;;;;;29.01;38.42;94960.88;4949231;28;9291;-61
2022/06/17 11:25:25;;;;;;;;;;;;;;;28.99;38.23;94955.13;4989110;28;7328;-61
2022/06/17 11:27:59;;;;;;;;;;;;;;;28.97;38.37;94952.13;5048388;28;6860;-61
2022/06/17 11:30:34;;;;;;;;;;;;;;;28.98;38.69;94964.72;5062935;28;8184;-61
2022/06/17 11:33:03;;;;;;;;;;;;;;;29.01;38.05;94949.81;5054019;28;9119;-61
2022/06/17 11:35:36;;;;;;;;;;;;;;;29.04;38.60;94950.78;5055029;28;9807;-61
2022/06/17 11:38:10;;;;;;;;;;;;;;;29.02;38.66;94954.09;5052826;28;7785;-61
2022/06/17 11:40:48;;;;;;;;;;;;;;;29.01;38.31;94958.13;5054129;28;7341;-61
2022/06/17 11:43:43;;;;;;;;;;;;;;;29.00;38.69;94953.88;5047054;28;7274;-61
2022/06/17 11:46:31;;;;;;;;;;;;;;;28.95;38.54;94946.34;5048479;28;9191;-61
2022/06/17 11:49:16;;;;;;;;;;;;;;;28.97;38.74;94941.06;5050876;28;7190;-61
2022/06/17 11:52:09;;;;;;;;;;;;;;;28.97;38.51;94943.81;5046689;28;9321;-61
2022/06/17 11:54:46;;;;;;;;;;;;;;;28.96;38.47;94939.56;4968437;28;7187;-61
2022/06/17 11:57:18;;;;;;;;;;;;;;;29.00;38.37;94942.03;4954936;28;7208;-62
2022/06/17 12:00:11;;;;;;;;;;;;;;;29.00;38.74;94939.25;4954336;28;8913;-62
2022/06/17 12:03:22;;;;;;;;;;;;;;;29.00;38.68;94928.94;4964468;28;6978;-61
2022/06/17 12:05:58;;;;;;;;;;;;;;;28.98;39.09;94934.25;4869894;29;9173;-61
2022/06/17 12:08:44;;;;;;;;;;;;;;;29.01;38.07;94929.69;4868549;29;9216;-62
2022/06/17 12:11:32;;;;;;;;;;;;;;;29.02;38.26;94931.19;4867602;29;9370;-61
2022/06/17 12:14:05;;;;;;;;;;;;;;;29.04;38.41;94928.63;4858040;29;7510;-61
2022/06/17 12:16:47;;;;;;;;;;;;;;;29.05;38.10;94932.91;4867034;29;6995;-61
2022/06/17 12:19:39;;;;;;;;;;;;;;;29.06;38.19;94929.63;4853628;29;9140;-61
2022/06/17 12:22:44;;;;;;;;;;;;;;;29.09;38.31;94925.81;4862013;29;9411;-62
2022/06/17 12:25:42;;;;;;;;;;;;;;;29.09;38.34;94925.81;4852439;29;6987;-62
2022/06/17 12:28:35;;;;;;;;;;;;;;;29.12;38.61;94926.03;4872624;29;7560;-62
2022/06/17 12:31:39;;;;;;;;;;;;;;;29.11;38.73;94919.75;4875515;28;7244;-62
2022/06/17 12:34:20;;;;;;;;;;;;;;;29.12;38.40;94923.28;4920634;28;7293;-61
2022/06/17 12:36:55;;;;;;;;;;;;;;;29.13;38.38;94919.22;4949690;28;7275;-62
2022/06/17 12:39:36;;;;;;;;;;;;;;;29.12;38.74;94914.97;4947029;28;7282;-62
2022/06/17 12:42:21;;;;;;;;;;;;;;;29.15;38.15;94911.13;4949648;28;7308;-61
2022/06/17 12:45:21;;;;;;;;;;;;;;;29.16;38.04;94907.09;5049593;28;9490;-61
2022/06/17 12:48:16;;;;;;;;;;;;;;;29.17;38.43;94908.66;5050136;28;7203;-61
2022/06/17 12:54:31;;;;;;;;;;;;;;;29.18;38.04;94899.81;5058847;28;7012;-61
2022/06/17 12:57:34;;;;;;;;;;;;;;;29.18;38.49;94904.59;5069517;28;7351;-61
2022/06/17 13:00:06;;;;;;;;;;;;;;;29.17;38.53;94903.09;5045133;28;7287;-61
2022/06/17 13:02:54;;;;;;;;;;;;;;;29.18;38.35;94908.13;5067949;28;7319;-61
2022/06/17 13:05:36;;;;;;;;;;;;;;;29.19;38.69;94901.28;5068634;28;9076;-61
2022/06/17 13:08:29;;;;;;;;;;;;;;;29.22;38.68;94905.03;5074725;28;9041;-61
2022/06/17 13:11:21;;;;;;;;;;;;;;;29.21;39.11;94903.56;5072992;28;7271;-61
2022/06/17 13:14:21;;;;;;;;;;;;;;;29.21;38.48;94903.56;5058649;28;7280;-62
2022/06/17 13:20:35;;;;;;;;;;;;;;;29.24;38.63;94906.00;5070126;28;7374;-61
2022/06/17 13:23:34;;;;;;;;;;;;;;;29.27;38.84;94907.00;5070946;28;7080;-61
2022/06/17 13:26:16;;;;;;;;;;;;;;;29.29;38.88;94904.44;5053104;28;6976;-61
2022/06/17 13:29:01;;;;;;;;;;;;;;;29.29;38.61;94907.97;5058329;28;9079;-61
2022/06/17 13:32:20;;;;;;;;;;;;;;;29.31;38.21;94901.91;5051852;28;7264;-62
2022/06/17 13:34:55;;;;;;;;;;;;;;;29.30;38.19;94903.91;5001015;28;7260;-61
2022/06/17 13:37:39;;;;;;;;;;;;;;;29.31;38.80;94913.00;5007375;28;7203;-61
2022/06/17 13:40:13;;;;;;;;;;;;;;;29.28;38.85;94900.16;4992307;28;7910;-61
2022/06/17 13:42:42;;;;;;;;;;;;;;;29.30;38.58;94911.47;4988923;28;7236;-62
2022/06/17 13:45:32;;;;;;;;;;;;;;;29.32;38.69;94911.72;5002832;28;7066;-62
2022/06/17 13:48:29;;;;;;;;;;;;;;;29.33;38.21;94902.88;4998540;28;7073;-61
2022/06/17 13:51:29;;;;;;;;;;;;;;;29.36;38.24;94903.88;4990718;28;9059;-62
2022/06/17 13:54:30;;;;;;;;;;;;;;;29.39;38.43;94900.03;5002713;28;9476;-61
2022/06/17 13:57:06;;;;;;;;;;;;;;;29.41;38.13;94903.03;4979968;28;7293;-61
2022/06/17 13:59:55;;;;;;;;;;;;;;;29.43;38.83;94904.00;4985774;28;7488;-61
2022/06/17 14:02:28;;;;;;;;;;;;;;;29.43;39.09;94901.22;4981447;28;7418;-61
2022/06/17 14:05:09;;;;;;;;;;;;;;;29.42;38.51;94896.22;5000626;28;9141;-61
2022/06/17 14:07:50;;;;;;;;;;;;;;;29.44;38.87;94899.22;4985926;28;6988;-61
2022/06/17 14:10:43;;;;;;;;;;;;;;;29.42;38.76;94901.75;5029322;28;7299;-61
2022/06/17 14:13:22;;;;;;;;;;;;;;;29.43;38.44;94901.22;5041492;28;7106;-61
2022/06/17 14:16:13;;;;;;;;;;;;;;;29.47;38.69;94898.19;5072276;28;9078;-62
2022/06/17 14:18:42;;;;;;;;;;;;;;;29.47;38.53;94896.13;5065471;28;9706;-61
2022/06/17 14:21:25;;;;;;;;;;;;;;;29.49;38.85;94895.63;5051370;28;8496;-61
2022/06/17 14:23:56;;;;;;;;;;;;;;;29.51;39.14;94899.38;5067604;28;8994;-61